createdAt,value
2023-02-12T00:00:58.100Z,41.60
2023-02-12T00:02:58.437Z,42.60
2023-02-12T00:04:58.745Z,42.00
2023-02-12T00:06:59.063Z,47.40
2023-02-12T00:08:59.331Z,44.90
2023-02-12T00:10:59.763Z,45.10
2023-02-12T00:13:00.060Z,45.00
2023-02-12T00:15:00.367Z,44.10
2023-02-12T00:17:00.668Z,44.40
2023-02-12T00:19:01.050Z,45.20
2023-02-12T00:21:01.322Z,43.90
2023-02-12T00:23:01.694Z,43.20
2023-02-12T00:25:02.037Z,42.40
2023-02-12T00:27:02.399Z,43.90
2023-02-12T00:29:02.887Z,41.40
2023-02-12T00:31:03.224Z,44.60
2023-02-12T00:33:03.588Z,46.90
2023-02-12T00:35:03.868Z,45.30
2023-02-12T00:37:04.207Z,47.70
2023-02-12T00:39:04.506Z,45.30
2023-02-12T00:41:04.763Z,47.90
2023-02-12T00:43:05.067Z,47.10
2023-02-12T00:45:05.369Z,46.90
2023-02-12T00:47:05.668Z,48.10
2023-02-12T00:49:05.964Z,47.40
2023-02-12T00:51:06.273Z,45.10
2023-02-12T00:53:06.552Z,48.00
2023-02-12T00:55:07.444Z,47.80
2023-02-12T00:57:07.816Z,46.40
2023-02-12T00:59:08.091Z,47.10
2023-02-12T01:01:09.465Z,45.30
2023-02-12T01:03:09.717Z,47.20
2023-02-12T01:05:10.270Z,51.50
2023-02-12T01:07:10.717Z,46.90
2023-02-12T01:09:11.050Z,43.70
2023-02-12T01:11:11.394Z,47.50
2023-02-12T01:13:11.759Z,52.90
2023-02-12T01:15:12.058Z,46.00
2023-02-12T01:17:12.391Z,47.60
2023-02-12T01:19:12.655Z,48.70
2023-02-12T01:21:13.074Z,47.30
2023-02-12T01:23:13.346Z,49.40
2023-02-12T01:25:13.691Z,46.60
2023-02-12T01:27:13.976Z,49.10
2023-02-12T01:29:14.886Z,47.40
2023-02-12T01:31:15.257Z,47.80
2023-02-12T01:33:15.631Z,50.10
2023-02-12T01:35:16.007Z,48.60
2023-02-12T01:37:16.261Z,43.20
2023-02-12T01:39:16.551Z,46.90
2023-02-12T01:41:16.914Z,46.90
2023-02-12T01:43:17.182Z,53.80
2023-02-12T01:45:17.505Z,45.60
2023-02-12T01:47:17.795Z,45.70
2023-02-12T01:49:18.066Z,47.20
2023-02-12T01:51:18.538Z,46.90
2023-02-12T01:53:18.861Z,50.20
2023-02-12T01:55:19.166Z,45.00
2023-02-12T01:57:19.454Z,46.40
2023-02-12T01:59:19.801Z,44.10
2023-02-12T02:01:20.225Z,44.00
2023-02-12T02:03:20.556Z,42.50
2023-02-12T02:05:20.859Z,45.70
2023-02-12T02:07:21.120Z,45.40
2023-02-12T02:09:21.446Z,45.40
2023-02-12T02:11:21.756Z,48.60
2023-02-12T02:13:22.087Z,43.90
2023-02-12T02:15:22.348Z,47.80
2023-02-12T02:17:22.663Z,45.70
2023-02-12T02:20:17.314Z,46.00
2023-02-12T02:22:17.663Z,49.10
2023-02-12T02:24:18.377Z,47.60
2023-02-12T02:26:18.817Z,46.00
2023-02-12T02:28:19.182Z,50.20
2023-02-12T02:30:19.637Z,45.90
2023-02-12T02:32:19.992Z,46.70
2023-02-12T02:34:20.354Z,50.60
2023-02-12T02:36:20.840Z,47.40
2023-02-12T02:38:21.268Z,46.90
2023-02-12T02:40:21.496Z,45.80
2023-02-12T02:42:21.874Z,52.00
2023-02-12T02:44:22.179Z,47.80
2023-02-12T02:46:22.477Z,45.70
2023-02-12T02:48:22.797Z,47.40
2023-02-12T02:50:23.049Z,45.90
2023-02-12T02:52:23.504Z,44.90
2023-02-12T02:54:23.734Z,45.80
2023-02-12T02:56:24.047Z,47.60
2023-02-12T02:58:24.334Z,45.00
2023-02-12T03:00:24.685Z,46.70
2023-02-12T03:02:25.597Z,44.80
2023-02-12T03:04:25.898Z,49.20
2023-02-12T03:06:27.100Z,45.40
2023-02-12T03:08:27.402Z,45.50
2023-02-12T03:10:27.670Z,46.80
2023-02-12T03:12:27.953Z,51.10
2023-02-12T03:14:28.259Z,46.10
2023-02-12T03:16:28.613Z,48.70
2023-02-12T03:18:29.024Z,46.40
2023-02-12T03:20:29.293Z,48.30
2023-02-12T03:22:29.766Z,48.90
2023-02-12T03:24:30.026Z,48.30
2023-02-12T03:26:30.323Z,49.70
2023-02-12T03:28:30.763Z,47.70
2023-02-12T03:30:31.049Z,50.10
2023-02-12T03:32:31.383Z,48.60
2023-02-12T03:34:31.697Z,48.30
2023-02-12T03:36:32.650Z,48.20
2023-02-12T03:38:32.929Z,48.20
2023-02-12T03:40:33.217Z,48.30
2023-02-12T03:42:33.758Z,47.80
2023-02-12T03:44:34.108Z,48.70
2023-02-12T03:46:34.396Z,52.20
2023-02-12T03:48:34.719Z,47.40
2023-02-12T03:50:35.071Z,45.80
2023-02-12T03:52:35.341Z,48.60
2023-02-12T03:54:35.896Z,46.20
2023-02-12T03:56:36.257Z,45.70
2023-02-12T03:58:36.622Z,47.70
2023-02-12T04:00:36.919Z,49.90
2023-02-12T04:02:37.496Z,47.30
2023-02-12T04:04:38.041Z,45.70
2023-02-12T04:06:39.117Z,47.90
2023-02-12T04:08:39.636Z,50.30
2023-02-12T04:10:39.888Z,48.30
2023-02-12T04:12:40.353Z,51.80
2023-02-12T04:14:40.597Z,48.40
2023-02-12T04:16:40.947Z,51.00
2023-02-12T04:18:41.392Z,48.20
2023-02-12T04:20:41.682Z,48.70
2023-02-12T04:22:42.021Z,48.60
2023-02-12T04:24:43.193Z,49.30
2023-02-12T04:26:43.493Z,48.00
2023-02-12T04:28:44.233Z,50.40
2023-02-12T04:30:45.374Z,50.90
2023-02-12T04:32:45.882Z,50.70
2023-02-12T04:34:46.138Z,46.80
2023-02-12T04:36:46.549Z,53.00
2023-02-12T04:38:46.855Z,46.10
2023-02-12T04:40:52.120Z,50.00
2023-02-12T04:42:52.410Z,51.80
2023-02-12T04:44:57.553Z,48.40
2023-02-12T04:46:57.940Z,50.70
2023-02-12T04:48:58.663Z,49.90
2023-02-12T04:50:59.285Z,51.00
2023-02-12T04:52:59.757Z,51.50
2023-02-12T04:55:00.096Z,51.40
2023-02-12T04:57:00.394Z,47.70
2023-02-12T04:59:00.850Z,52.30
2023-02-12T05:01:01.765Z,48.80
2023-02-12T05:03:02.581Z,48.80
2023-02-12T05:05:02.925Z,48.40
2023-02-12T05:07:03.357Z,46.60
2023-02-12T05:09:03.662Z,48.20
2023-02-12T05:11:04.084Z,48.20
2023-02-12T05:13:04.639Z,47.20
2023-02-12T05:15:04.968Z,46.00
2023-02-12T05:17:05.368Z,44.40
2023-02-12T05:19:05.638Z,51.70
2023-02-12T05:21:06.470Z,53.30
2023-02-12T05:23:06.996Z,49.20
2023-02-12T05:25:07.251Z,47.50
2023-02-12T05:27:07.543Z,50.90
2023-02-12T05:29:07.882Z,49.90
2023-02-12T05:31:08.325Z,48.90
2023-02-12T05:33:08.605Z,52.40
2023-02-12T05:35:08.976Z,50.40
2023-02-12T05:37:09.247Z,50.30
2023-02-12T05:39:09.541Z,50.20
2023-02-12T05:41:10.172Z,48.70
2023-02-12T05:43:10.474Z,50.30
2023-02-12T05:45:10.790Z,50.60
2023-02-12T05:47:11.077Z,52.60
2023-02-12T05:49:11.416Z,48.50
2023-02-12T05:51:11.703Z,48.70
2023-02-12T05:53:11.983Z,48.40
2023-02-12T05:55:12.303Z,52.70
2023-02-12T05:57:12.668Z,50.90
2023-02-12T05:59:13.015Z,49.50
2023-02-12T06:01:13.318Z,49.70
2023-02-12T06:03:13.573Z,51.00
2023-02-12T06:05:14.284Z,49.80
2023-02-12T06:07:14.573Z,47.40
2023-02-12T06:09:14.863Z,47.20
2023-02-12T06:11:15.176Z,48.50
2023-02-12T06:13:15.479Z,50.90
2023-02-12T06:15:15.813Z,51.90
2023-02-12T06:17:16.259Z,54.50
2023-02-12T06:19:16.540Z,53.00
2023-02-12T06:21:16.863Z,53.90
2023-02-12T06:23:17.106Z,55.20
2023-02-12T06:25:17.600Z,53.20
2023-02-12T06:27:18.309Z,56.40
2023-02-12T06:29:18.644Z,60.50
2023-02-12T06:31:19.115Z,62.30
2023-02-12T06:33:19.722Z,59.20
2023-02-12T06:35:20.746Z,54.50
2023-02-12T06:37:21.008Z,56.60
2023-02-12T06:39:21.330Z,57.50
2023-02-12T06:41:21.626Z,57.40
2023-02-12T06:43:21.919Z,66.70
2023-02-12T06:45:22.203Z,61.10
2023-02-12T06:47:22.782Z,59.50
2023-02-12T06:49:23.114Z,52.50
2023-02-12T06:51:23.572Z,54.00
2023-02-12T06:53:23.929Z,56.30
2023-02-12T06:55:24.280Z,54.80
2023-02-12T06:57:24.569Z,56.00
2023-02-12T06:59:24.846Z,57.50
2023-02-12T07:01:25.226Z,59.80
2023-02-12T07:03:25.520Z,59.10
2023-02-12T07:05:25.846Z,57.80
2023-02-12T07:07:26.179Z,56.90
2023-02-12T07:09:26.431Z,58.10
2023-02-12T07:11:26.803Z,60.10
2023-02-12T07:13:27.077Z,53.80
2023-02-12T07:15:27.403Z,58.10
2023-02-12T07:17:27.684Z,54.20
2023-02-12T07:19:28.012Z,52.60
2023-02-12T07:21:28.346Z,56.00
2023-02-12T07:23:28.701Z,50.50
2023-02-12T07:25:29.052Z,52.10
2023-02-12T07:27:29.385Z,49.20
2023-02-12T07:29:29.727Z,51.90
2023-02-12T07:31:30.750Z,54.40
2023-02-12T07:33:31.170Z,51.90
2023-02-12T07:35:31.646Z,56.60
2023-02-12T07:37:32.206Z,46.20
2023-02-12T07:39:32.554Z,45.00
2023-02-12T07:41:32.929Z,48.80
2023-02-12T07:43:33.226Z,46.30
2023-02-12T07:45:33.627Z,48.40
2023-02-12T07:47:33.890Z,49.40
2023-02-12T07:49:34.186Z,45.80
2023-02-12T07:51:34.500Z,50.50
2023-02-12T07:53:35.054Z,52.50
2023-02-12T07:55:35.343Z,48.80
2023-02-12T07:57:35.636Z,46.20
2023-02-12T07:59:36.017Z,47.70
2023-02-12T08:01:36.356Z,50.00
2023-02-12T08:03:36.935Z,47.50
2023-02-12T08:05:37.330Z,49.20
2023-02-12T08:07:37.656Z,51.40
2023-02-12T08:09:37.979Z,47.20
2023-02-12T08:11:38.269Z,49.90
2023-02-12T08:13:38.562Z,53.90
2023-02-12T08:15:38.870Z,50.50
2023-02-12T08:17:39.164Z,50.40
2023-02-12T08:19:39.508Z,49.60
2023-02-12T08:21:39.847Z,53.00
2023-02-12T08:23:40.158Z,52.20
2023-02-12T08:25:40.481Z,50.80
2023-02-12T08:27:40.771Z,51.50
2023-02-12T08:29:41.118Z,52.90
2023-02-12T08:31:41.480Z,50.20
2023-02-12T08:33:42.002Z,52.60
2023-02-12T08:35:42.278Z,55.70
2023-02-12T08:37:42.630Z,49.70
2023-02-12T08:39:43.236Z,47.00
2023-02-12T08:41:44.591Z,45.00
2023-02-12T08:43:45.072Z,47.00
2023-02-12T08:45:45.639Z,45.20
2023-02-12T08:47:45.960Z,44.30
2023-02-12T08:49:46.257Z,46.50
2023-02-12T08:51:46.832Z,43.90
2023-02-12T08:54:36.347Z,44.80
2023-02-12T08:56:37.515Z,47.40
2023-02-12T08:58:38.351Z,44.90
2023-02-12T09:00:40.489Z,48.70
2023-02-12T09:02:41.077Z,47.80
2023-02-12T09:04:41.387Z,46.20
2023-02-12T09:06:42.342Z,47.40
2023-02-12T09:08:42.721Z,45.70
2023-02-12T09:10:43.140Z,40.50
2023-02-12T09:12:43.390Z,40.40
2023-02-12T09:14:43.717Z,42.30
2023-02-12T09:16:44.404Z,40.00
2023-02-12T09:18:44.705Z,42.90
2023-02-12T09:20:45.071Z,41.10
2023-02-12T09:22:45.417Z,37.70
2023-02-12T09:24:45.771Z,39.60
2023-02-12T09:26:46.457Z,37.70
2023-02-12T09:28:47.335Z,36.10
2023-02-12T09:30:47.772Z,36.10
2023-02-12T09:32:48.194Z,35.30
2023-02-12T09:34:48.538Z,34.90
2023-02-12T09:36:48.908Z,37.70
2023-02-12T09:38:49.215Z,35.90
2023-02-12T09:40:49.528Z,39.80
2023-02-12T09:42:50.058Z,38.00
2023-02-12T09:44:50.352Z,40.70
2023-02-12T09:46:50.680Z,43.50
2023-02-12T09:48:51.003Z,43.30
2023-02-12T09:50:51.539Z,38.00
2023-02-12T09:52:51.844Z,37.80
2023-02-12T09:54:52.157Z,41.10
2023-02-12T09:56:52.517Z,39.10
2023-02-12T09:58:52.785Z,39.00
2023-02-12T10:00:53.361Z,39.10
2023-02-12T10:02:53.620Z,37.00
2023-02-12T10:05:01.221Z,35.40
2023-02-12T10:06:59.155Z,39.30
2023-02-12T10:08:59.606Z,37.50
2023-02-12T10:10:59.958Z,38.20
2023-02-12T10:13:00.373Z,39.80
2023-02-12T10:15:00.814Z,38.70
2023-02-12T10:17:01.194Z,39.50
2023-02-12T10:19:01.503Z,36.80
2023-02-12T10:21:01.820Z,38.00
2023-02-12T10:23:02.148Z,37.80
2023-02-12T10:25:02.446Z,40.20
2023-02-12T10:27:03.018Z,40.70
2023-02-12T10:29:03.369Z,40.50
2023-02-12T10:31:03.959Z,39.70
2023-02-12T10:33:04.244Z,40.80
2023-02-12T10:35:04.656Z,41.30
2023-02-12T10:37:04.935Z,39.30
2023-02-12T10:39:05.244Z,39.40
2023-02-12T10:41:05.547Z,38.90
2023-02-12T10:43:06.028Z,40.40
2023-02-12T10:45:06.274Z,38.00
2023-02-12T10:47:06.637Z,36.40
2023-02-12T10:49:06.970Z,37.60
2023-02-12T10:51:07.322Z,39.50
2023-02-12T10:53:07.728Z,40.60
2023-02-12T10:55:08.074Z,37.60
2023-02-12T10:57:08.567Z,38.60
2023-02-12T10:59:08.950Z,36.70
2023-02-12T11:01:09.256Z,39.00
2023-02-12T11:03:09.664Z,40.60
2023-02-12T11:05:09.954Z,37.50
2023-02-12T11:07:10.311Z,36.20
2023-02-12T11:09:10.595Z,36.00
2023-02-12T11:11:11.019Z,36.70
2023-02-12T11:13:11.298Z,35.80
2023-02-12T11:15:11.710Z,38.30
2023-02-12T11:17:11.953Z,37.70
2023-02-12T11:19:12.422Z,34.70
2023-02-12T11:21:12.867Z,34.90
2023-02-12T11:23:13.156Z,35.10
2023-02-12T11:25:13.612Z,36.10
2023-02-12T11:27:14.154Z,33.80
2023-02-12T11:29:14.620Z,34.60
2023-02-12T11:31:15.210Z,35.20
2023-02-12T11:33:15.534Z,31.80
2023-02-12T11:35:15.939Z,32.30
2023-02-12T11:37:18.104Z,33.20
2023-02-12T11:39:18.391Z,32.10
2023-02-12T11:41:19.120Z,32.40
2023-02-12T11:43:19.509Z,33.40
2023-02-12T11:45:19.775Z,33.50
2023-02-12T11:47:20.044Z,31.70
2023-02-12T11:49:20.431Z,27.40
2023-02-12T11:51:20.775Z,26.00
2023-02-12T11:53:21.116Z,24.90
2023-02-12T11:55:21.415Z,25.00
2023-02-12T11:57:21.795Z,24.70
2023-02-12T11:59:22.085Z,24.40
2023-02-12T12:01:22.424Z,24.80
2023-02-12T12:03:22.750Z,25.20
2023-02-12T12:05:23.079Z,22.80
2023-02-12T12:07:24.290Z,26.60
2023-02-12T12:09:24.654Z,21.40
2023-02-12T12:11:24.993Z,20.20
2023-02-12T12:13:26.079Z,21.00
2023-02-12T12:15:26.592Z,17.50
2023-02-12T12:17:26.860Z,16.30
2023-02-12T12:19:29.165Z,19.20
2023-02-12T12:21:29.540Z,16.10
2023-02-12T12:23:29.794Z,16.10
2023-02-12T12:25:30.125Z,18.40
2023-02-12T12:27:30.492Z,16.20
2023-02-12T12:29:30.828Z,18.10
2023-02-12T12:31:31.185Z,16.50
2023-02-12T12:33:31.753Z,16.00
2023-02-12T12:35:32.188Z,14.00
2023-02-12T12:37:32.592Z,15.90
2023-02-12T12:39:32.873Z,16.90
2023-02-12T12:41:33.228Z,18.20
2023-02-12T12:43:33.575Z,16.50
2023-02-12T12:45:33.967Z,17.00
2023-02-12T12:47:34.347Z,15.40
2023-02-12T12:49:34.766Z,17.60
2023-02-12T12:51:35.088Z,14.40
2023-02-12T12:53:35.386Z,16.00
2023-02-12T12:55:35.675Z,11.10
2023-02-12T12:57:36.098Z,8.30
2023-02-12T12:59:36.379Z,7.80
2023-02-12T13:01:36.679Z,6.70
2023-02-12T13:03:37.194Z,5.70
2023-02-12T13:05:37.477Z,6.10
2023-02-12T13:07:37.879Z,6.50
2023-02-12T13:09:38.364Z,88.00
2023-02-12T13:11:39.910Z,34.50
2023-02-12T13:13:40.374Z,16.60
2023-02-12T13:15:40.692Z,8.90
2023-02-12T13:17:41.051Z,5.30
2023-02-12T13:19:41.757Z,10.20
2023-02-12T13:21:42.542Z,7.70
2023-02-12T13:23:42.910Z,6.10
2023-02-12T13:26:33.065Z,5.70
2023-02-12T13:30:36.236Z,7.50
2023-02-12T13:32:37.150Z,7.80
2023-02-12T13:35:25.351Z,6.20
2023-02-12T13:38:10.949Z,7.00
2023-02-12T13:40:11.329Z,8.70
2023-02-12T13:42:11.910Z,8.00
2023-02-12T13:44:12.228Z,6.30
2023-02-12T13:46:12.819Z,6.60
2023-02-12T13:48:13.495Z,6.60
2023-02-12T13:50:14.019Z,5.80
2023-02-12T13:53:02.793Z,6.50
2023-02-12T13:56:36.194Z,6.40
2023-02-12T13:59:19.790Z,5.20
2023-02-12T14:01:20.170Z,6.30
2023-02-12T14:03:20.436Z,7.20
2023-02-12T14:05:20.761Z,7.60
2023-02-12T14:07:21.076Z,7.10
2023-02-12T14:09:21.376Z,7.20
2023-02-12T14:11:21.696Z,7.00
2023-02-12T14:13:22.110Z,6.40
2023-02-12T14:15:22.440Z,6.20
2023-02-12T14:17:22.818Z,7.60
2023-02-12T14:19:23.526Z,8.70
2023-02-12T14:21:23.973Z,7.00
2023-02-12T14:23:24.677Z,6.50
2023-02-12T14:25:25.333Z,6.20
2023-02-12T14:27:25.564Z,7.80
2023-02-12T14:29:25.897Z,6.70
2023-02-12T14:31:26.354Z,7.70
2023-02-12T14:33:26.749Z,8.00
2023-02-12T14:35:27.034Z,7.20
2023-02-12T14:37:27.352Z,6.80
2023-02-12T14:39:27.945Z,7.60
2023-02-12T14:41:28.269Z,6.90
2023-02-12T14:43:29.627Z,7.10
2023-02-12T14:45:30.143Z,6.10
2023-02-12T14:47:32.252Z,7.10
2023-02-12T14:49:33.023Z,6.70
2023-02-12T14:51:33.309Z,7.70
2023-02-12T14:53:33.645Z,10.30
2023-02-12T14:55:34.009Z,8.40
2023-02-12T14:57:34.366Z,7.50
2023-02-12T14:59:34.656Z,7.20
2023-02-12T15:01:35.041Z,7.20
2023-02-12T15:03:35.324Z,7.90
2023-02-12T15:05:35.795Z,8.20
2023-02-12T15:07:36.563Z,6.90
2023-02-12T15:09:36.943Z,7.20
2023-02-12T15:11:37.214Z,7.80
2023-02-12T15:13:37.516Z,8.30
2023-02-12T15:15:38.026Z,6.50
2023-02-12T15:17:38.290Z,7.20
2023-02-12T15:19:38.884Z,8.00
2023-02-12T15:21:39.466Z,7.50
2023-02-12T15:37:58.221Z,8.80
2023-02-12T15:45:30.599Z,9.90
2023-02-12T15:47:31.295Z,10.20
2023-02-12T15:49:31.757Z,11.20
2023-02-12T15:51:31.976Z,9.20
2023-02-12T15:57:54.741Z,16.50
2023-02-12T15:59:55.178Z,18.60
2023-02-12T16:01:55.732Z,20.60
2023-02-12T16:03:56.026Z,11.50
2023-02-12T16:06:38.802Z,9.60
2023-02-12T16:08:39.403Z,13.20
2023-02-12T16:16:00.627Z,15.80
2023-02-12T16:18:01.641Z,17.60
2023-02-12T16:22:50.622Z,23.00
2023-02-12T16:24:51.053Z,21.60
2023-02-12T16:26:51.815Z,22.90
2023-02-12T16:31:04.750Z,29.80
2023-02-12T16:33:06.173Z,27.90
2023-02-12T16:35:07.014Z,27.40
2023-02-12T16:37:49.719Z,27.10
2023-02-12T16:39:50.139Z,31.00
2023-02-12T16:49:11.787Z,34.30
2023-02-12T16:55:57.787Z,35.00
2023-02-12T16:58:52.497Z,32.80
2023-02-12T17:00:52.925Z,33.60
2023-02-12T17:02:53.480Z,35.40
2023-02-12T17:04:55.730Z,35.50
2023-02-12T17:06:59.095Z,33.10
2023-02-12T17:08:59.651Z,36.20
2023-02-12T17:11:00.270Z,36.50
2023-02-12T17:13:00.673Z,35.30
2023-02-12T17:15:00.973Z,35.00
2023-02-12T17:17:01.418Z,35.00
2023-02-12T17:19:01.829Z,36.30
2023-02-12T17:21:02.178Z,36.90
2023-02-12T17:23:02.889Z,37.40
2023-02-12T17:25:03.727Z,36.60
2023-02-12T17:28:22.486Z,37.50
2023-02-12T17:44:43.273Z,41.40
2023-02-12T17:53:50.242Z,42.20
2023-02-12T17:55:51.000Z,45.90
2023-02-12T17:57:51.301Z,40.30
2023-02-12T17:59:51.752Z,41.20
2023-02-12T18:04:10.302Z,53.30
2023-02-12T18:10:25.119Z,61.10
2023-02-12T18:15:50.240Z,53.10
2023-02-12T18:20:42.328Z,45.40
2023-02-12T18:46:06.171Z,54.20
2023-02-12T18:48:06.509Z,56.70
2023-02-12T18:50:06.906Z,58.50
2023-02-12T18:52:07.257Z,51.80
2023-02-12T18:54:07.697Z,51.50
2023-02-12T18:56:08.013Z,51.50
2023-02-12T18:58:08.408Z,54.10
2023-02-12T19:00:08.987Z,74.40
2023-02-12T19:02:09.565Z,67.90
2023-02-12T19:04:14.743Z,56.50
2023-02-12T19:06:15.779Z,59.80
2023-02-12T19:08:16.089Z,59.30
2023-02-12T19:10:16.460Z,62.10
2023-02-12T19:12:16.828Z,59.70
2023-02-12T19:14:17.192Z,69.50
2023-02-12T19:16:17.741Z,57.40
2023-02-12T19:18:18.287Z,60.20
2023-02-12T19:20:18.765Z,64.80
2023-02-12T19:22:19.353Z,56.70
2023-02-12T19:24:19.847Z,51.80
2023-02-12T19:38:44.752Z,73.00
2023-02-12T19:44:13.735Z,54.60
2023-02-12T19:50:27.367Z,71.80
2023-02-12T19:52:28.015Z,71.50
2023-02-12T19:54:28.571Z,59.90
2023-02-12T19:56:28.915Z,56.50
2023-02-12T19:58:29.287Z,61.30
2023-02-12T20:00:29.959Z,57.30
2023-02-12T20:02:30.628Z,56.00
2023-02-12T20:04:31.814Z,53.40
2023-02-12T20:06:32.156Z,62.30
2023-02-12T20:08:32.515Z,57.10
2023-02-12T20:10:33.163Z,49.50
2023-02-12T20:12:33.559Z,57.00
2023-02-12T20:15:20.067Z,74.30
2023-02-12T20:19:41.118Z,84.80
2023-02-12T20:21:42.347Z,86.50
2023-02-12T20:23:42.664Z,83.90
2023-02-12T20:26:50.161Z,71.00
2023-02-12T20:30:32.803Z,60.50
2023-02-12T20:35:03.825Z,61.80
2023-02-12T20:44:11.556Z,58.70
2023-02-12T21:11:06.541Z,59.60
2023-02-12T21:15:30.871Z,51.70
2023-02-12T21:19:25.219Z,52.80
2023-02-12T21:23:02.120Z,49.50
2023-02-12T21:25:02.440Z,53.10
2023-02-12T21:27:02.890Z,48.20
2023-02-12T21:29:03.254Z,45.70
2023-02-12T21:31:03.834Z,44.60
2023-02-12T21:33:05.126Z,49.50
2023-02-12T21:35:05.598Z,48.10
2023-02-12T21:37:11.059Z,43.30
2023-02-12T21:39:11.575Z,42.10
2023-02-12T21:41:12.119Z,37.30
2023-02-12T21:43:12.472Z,41.20
2023-02-12T21:45:12.818Z,41.00
2023-02-12T21:47:13.198Z,36.30
2023-02-12T21:49:13.510Z,39.60
2023-02-12T21:51:13.806Z,35.20
2023-02-12T21:53:14.135Z,33.60
2023-02-12T21:55:14.476Z,32.70
2023-02-12T21:57:15.048Z,38.40
2023-02-12T21:59:15.553Z,33.70
2023-02-12T22:01:17.223Z,35.20
2023-02-12T22:03:17.500Z,32.10
2023-02-12T22:05:17.846Z,31.80
2023-02-12T22:07:18.172Z,30.00
2023-02-12T22:09:18.509Z,34.40
2023-02-12T22:11:18.816Z,34.30
2023-02-12T22:13:19.103Z,34.10
2023-02-12T22:15:19.450Z,32.70
2023-02-12T22:17:19.852Z,33.10
2023-02-12T22:19:20.104Z,34.30
2023-02-12T22:21:20.411Z,33.30
2023-02-12T22:23:20.717Z,37.20
2023-02-12T22:25:21.047Z,34.50
2023-02-12T22:27:21.344Z,34.80
2023-02-12T22:29:23.014Z,37.20
2023-02-12T22:31:24.252Z,35.90
2023-02-12T22:33:24.680Z,33.30
2023-02-12T22:35:25.001Z,38.90
2023-02-12T22:37:25.329Z,37.20
2023-02-12T22:39:25.734Z,35.30
2023-02-12T22:41:26.114Z,34.20
2023-02-12T22:43:26.509Z,32.20
2023-02-12T22:45:27.124Z,37.10
2023-02-12T22:47:27.475Z,34.70
2023-02-12T22:49:27.805Z,38.30
2023-02-12T22:51:28.178Z,38.30
2023-02-12T22:53:28.555Z,38.90
2023-02-12T22:55:28.853Z,36.10
2023-02-12T22:57:29.254Z,41.10
2023-02-12T22:59:29.510Z,40.50
2023-02-12T23:01:29.897Z,40.10
2023-02-12T23:03:30.276Z,42.70
2023-02-12T23:05:30.786Z,39.40
2023-02-12T23:07:31.235Z,41.00
2023-02-12T23:09:31.972Z,38.20
2023-02-12T23:11:32.349Z,37.10
2023-02-12T23:13:32.691Z,41.50
2023-02-12T23:15:33.217Z,40.30
2023-02-12T23:17:33.617Z,38.30
2023-02-12T23:19:33.941Z,34.80
2023-02-12T23:21:34.220Z,36.10
2023-02-12T23:23:34.528Z,36.00
2023-02-12T23:25:35.076Z,40.40
2023-02-12T23:27:35.368Z,37.00
2023-02-12T23:29:35.700Z,32.50
2023-02-12T23:31:36.240Z,33.90
2023-02-12T23:33:36.614Z,36.20
2023-02-12T23:35:36.956Z,39.20
2023-02-12T23:37:37.226Z,36.90
2023-02-12T23:39:37.650Z,37.60
2023-02-12T23:41:37.917Z,38.40
2023-02-12T23:43:38.254Z,36.10
2023-02-12T23:45:38.550Z,36.30
2023-02-12T23:47:38.856Z,38.00
2023-02-12T23:49:39.218Z,38.30
2023-02-12T23:51:39.578Z,38.50
2023-02-12T23:53:39.953Z,32.30
2023-02-12T23:55:40.218Z,35.70
2023-02-12T23:57:40.509Z,37.90
2023-02-12T23:59:40.865Z,38.20
